KDRT

Del Rio International Airport

Del Rio, Texas, USA
METAR KDRT 231953Z AUTO 16004KT 10SM OVC009 15/14 A3013 RMK AO2 CIG 007V012 SLP197 T01500144
Observed Flight Rules
Oct-23 @ 19:53 UTC (40 minutes ago) Instrument Flight Rules
Wind Visibility Clouds
160° at 4 knots 10 miles
  • Overcast at 900' AGL
Temperatures Readings
Current 15°C / 59°F
Dewpoint 14°C / 57°F
Humidity 94%
Altimeter 30.13" Hg
Pressure 1019.7 hPa
Elevation 313
METAR KDRT 231953Z AUTO 16004KT 10SM OVC009 15/14 A3013 RMK AO2 CIG 007V012 SLP197 T01500144
Observed Flight Rules
Oct-23 @ 19:53 UTC
(40 minutes ago)
IFR
Wind Visibility
160° at 4 knots 10 miles
Clouds
  • Overcast at 900' AGL
Temperature Dewpoint
15°C / 59°F 14°C / 57°F
Humidity Altimeter Pressure
94% 30.13" Hg 1019.7 hPa